createdAt,value
2018-03-17T00:01:05.222Z,1000.46
2018-03-17T00:02:14.432Z,1000.42
2018-03-17T00:03:23.336Z,1000.42
2018-03-17T00:04:32.794Z,1000.44
2018-03-17T00:05:41.795Z,1000.46
2018-03-17T00:06:51.266Z,1000.51
2018-03-17T00:08:00.183Z,1000.5
2018-03-17T00:09:09.098Z,1000.45
2018-03-17T00:10:18.443Z,1000.52
2018-03-17T00:11:27.604Z,1000.47
2018-03-17T00:12:36.830Z,1000.47
2018-03-17T00:13:45.486Z,1000.49
2018-03-17T00:14:54.907Z,1000.4
2018-03-17T00:16:04.090Z,1000.36
2018-03-17T00:17:12.997Z,1000.4
2018-03-17T00:18:21.984Z,1000.38
2018-03-17T00:19:31.128Z,1000.37
2018-03-17T00:20:40.298Z,1000.35
2018-03-17T00:21:49.480Z,1000.36
2018-03-17T00:22:58.913Z,1000.42
2018-03-17T00:24:08.357Z,1000.37
2018-03-17T00:25:17.543Z,1000.38
2018-03-17T00:26:26.712Z,1000.38
2018-03-17T00:27:35.868Z,1000.36
2018-03-17T00:28:44.547Z,1000.35
2018-03-17T00:29:53.457Z,1000.39
2018-03-17T00:31:02.891Z,1000.39
2018-03-17T00:32:11.861Z,1000.37
2018-03-17T00:33:21.061Z,1000.37
2018-03-17T00:34:29.709Z,1000.38
2018-03-17T00:35:38.641Z,1000.38
2018-03-17T00:36:47.806Z,1000.34
2018-03-17T00:37:57.482Z,1000.33
2018-03-17T00:39:06.923Z,1000.37
2018-03-17T00:40:15.835Z,1000.33
2018-03-17T00:41:24.756Z,1000.37
2018-03-17T00:42:33.398Z,1000.33
2018-03-17T00:43:42.833Z,1000.36
2018-03-17T00:44:51.743Z,1000.35
2018-03-17T00:46:00.957Z,1000.38
2018-03-17T00:47:10.407Z,1000.36
2018-03-17T00:48:19.574Z,1000.39
2018-03-17T00:49:28.743Z,1000.45
2018-03-17T00:50:37.639Z,1000.43
2018-03-17T00:51:46.794Z,1000.41
2018-03-17T00:52:55.953Z,1000.44
2018-03-17T00:54:04.890Z,1000.44
2018-03-17T00:55:13.537Z,1000.45
2018-03-17T00:56:22.982Z,1000.38
2018-03-17T00:57:31.635Z,1000.44
2018-03-17T00:58:40.254Z,1000.45
2018-03-17T00:59:49.174Z,1000.43
2018-03-17T01:00:58.867Z,1000.42
2018-03-17T01:02:08.028Z,1000.47
2018-03-17T01:03:17.174Z,1000.42
2018-03-17T01:04:25.813Z,1000.47
2018-03-17T01:05:35.244Z,1000.45
2018-03-17T01:06:44.411Z,1000.5
2018-03-17T01:07:53.565Z,1000.5
2018-03-17T01:09:02.208Z,1000.51
2018-03-17T01:10:11.354Z,1000.52
2018-03-17T01:11:20.005Z,1000.51
2018-03-17T01:12:29.157Z,1000.48
2018-03-17T01:13:38.567Z,1000.49
2018-03-17T01:14:47.223Z,1000.46
2018-03-17T01:15:56.376Z,1000.45
2018-03-17T01:17:05.270Z,1000.42
2018-03-17T01:18:14.955Z,1000.41
2018-03-17T01:19:23.598Z,1000.4
2018-03-17T01:20:33.070Z,1000.34
2018-03-17T01:21:42.230Z,1000.39
2018-03-17T01:22:51.132Z,1000.46
2018-03-17T01:24:00.614Z,1000.41
2018-03-17T01:25:09.513Z,1000.49
2018-03-17T01:26:18.155Z,1000.48
2018-03-17T01:27:27.300Z,1000.52
2018-03-17T01:28:36.465Z,1000.53
2018-03-17T01:29:45.383Z,1000.56
2018-03-17T01:30:54.276Z,1000.55
2018-03-17T01:32:03.688Z,1000.61
2018-03-17T01:33:12.349Z,1000.56
2018-03-17T01:34:21.264Z,1000.55
2018-03-17T01:35:30.439Z,1000.55
2018-03-17T01:36:39.597Z,1000.51
2018-03-17T01:37:48.998Z,1000.48
2018-03-17T01:38:58.145Z,1000.47
2018-03-17T01:40:07.302Z,1000.4
2018-03-17T01:41:16.478Z,1000.4
2018-03-17T01:42:25.367Z,1000.47
2018-03-17T01:43:34.535Z,1000.42
2018-03-17T01:44:43.193Z,1000.42
2018-03-17T01:45:52.618Z,1000.39
2018-03-17T01:47:01.248Z,1000.38
2018-03-17T01:48:10.133Z,1000.37
2018-03-17T01:49:19.036Z,1000.34
2018-03-17T01:50:28.215Z,1000.36
2018-03-17T01:51:37.385Z,1000.34
2018-03-17T01:52:46.532Z,1000.34
2018-03-17T01:53:55.166Z,1000.31
2018-03-17T01:55:04.076Z,1000.34
2018-03-17T01:56:13.504Z,1000.34
2018-03-17T01:57:22.709Z,1000.36
2018-03-17T01:58:32.144Z,1000.35
2018-03-17T01:59:40.777Z,1000.36
2018-03-17T02:00:49.935Z,1000.34
2018-03-17T02:01:58.586Z,1000.37
2018-03-17T02:03:07.471Z,1000.28
2018-03-17T02:04:16.634Z,1000.25
2018-03-17T02:05:25.526Z,1000.21
2018-03-17T02:06:34.425Z,1000.22
2018-03-17T02:07:43.588Z,1000.2
2018-03-17T02:08:52.216Z,1000.24
2018-03-17T02:10:00.872Z,1000.22
2018-03-17T02:11:10.024Z,1000.21
2018-03-17T02:12:18.930Z,1000.2
2018-03-17T02:13:28.100Z,1000.23
2018-03-17T02:14:37.008Z,1000.16
2018-03-17T02:15:46.177Z,1000.19
2018-03-17T02:16:55.340Z,1000.23
2018-03-17T02:18:04.533Z,1000.25
2018-03-17T02:19:13.717Z,1000.2
2018-03-17T02:20:22.637Z,1000.23
2018-03-17T02:21:31.806Z,1000.17
2018-03-17T02:22:41.491Z,1000.22
2018-03-17T02:23:50.396Z,1000.19
2018-03-17T02:24:59.312Z,1000.22
2018-03-17T02:26:08.473Z,1000.19
2018-03-17T02:27:17.646Z,1000.24
2018-03-17T02:28:26.564Z,1000.21
2018-03-17T02:29:35.453Z,1000.19
2018-03-17T02:30:44.619Z,1000.18
2018-03-17T02:31:53.528Z,1000.17
2018-03-17T02:33:02.420Z,1000.15
2018-03-17T02:34:11.633Z,1000.14
2018-03-17T02:35:20.856Z,1000.16
2018-03-17T02:36:30.214Z,1000.15
2018-03-17T02:37:39.388Z,1000.11
2018-03-17T02:38:48.338Z,1000.14
2018-03-17T02:39:58.060Z,1000.14
2018-03-17T02:41:07.487Z,1000.14
2018-03-17T02:42:16.417Z,1000.11
2018-03-17T02:43:25.614Z,1000.14
2018-03-17T02:44:34.263Z,1000.15
2018-03-17T02:45:43.458Z,1000.14
2018-03-17T02:46:53.152Z,1000.17
2018-03-17T02:48:02.320Z,1000.19
2018-03-17T02:49:11.216Z,1000.2
2018-03-17T02:50:20.380Z,1000.15
2018-03-17T02:51:30.118Z,1000.18
2018-03-17T02:52:39.307Z,1000.15
2018-03-17T02:53:49.026Z,1000.14
2018-03-17T02:54:58.452Z,1000.08
2018-03-17T02:56:07.962Z,1000.07
2018-03-17T02:57:17.126Z,1000.1
2018-03-17T02:58:26.045Z,1000.06
2018-03-17T02:59:35.793Z,1000.09
2018-03-17T03:00:44.973Z,1000.05
2018-03-17T03:01:54.178Z,1000.04
2018-03-17T03:03:03.353Z,1000.05
2018-03-17T03:04:12.514Z,1000.06
2018-03-17T03:05:21.181Z,1000.03
2018-03-17T03:06:30.884Z,1000.01
2018-03-17T03:07:40.051Z,1000.09
2018-03-17T03:08:50.045Z,1000.07
2018-03-17T03:09:59.216Z,1000.07
2018-03-17T03:11:08.130Z,1000.04
2018-03-17T03:12:17.300Z,1000.05
2018-03-17T03:13:25.945Z,1000.07
2018-03-17T03:14:35.103Z,1000.08
2018-03-17T03:15:44.546Z,1000.1
2018-03-17T03:16:53.738Z,1000.12
2018-03-17T03:18:02.655Z,1000.08
2018-03-17T03:19:11.576Z,1000.07
2018-03-17T03:20:20.738Z,1000.02
2018-03-17T03:21:29.639Z,1000.05
2018-03-17T03:22:38.562Z,999.99
2018-03-17T03:23:47.202Z,1000.01
2018-03-17T03:24:56.616Z,1000.01
2018-03-17T03:26:05.251Z,1000.02
2018-03-17T03:27:14.429Z,1000.05
2018-03-17T03:28:23.398Z,1000.04
2018-03-17T03:29:32.300Z,1000.11
2018-03-17T03:30:41.481Z,1000.1
2018-03-17T03:31:50.896Z,1000.13
2018-03-17T03:32:59.541Z,1000.14
2018-03-17T03:34:09.008Z,1000.17
2018-03-17T03:35:18.415Z,1000.16
2018-03-17T03:36:27.582Z,1000.15
2018-03-17T03:37:36.748Z,1000.16
2018-03-17T03:38:46.422Z,1000.23
2018-03-17T03:39:55.587Z,1000.18
2018-03-17T03:41:04.795Z,1000.22
2018-03-17T03:42:14.246Z,1000.18
2018-03-17T03:43:23.406Z,1000.17
2018-03-17T03:44:33.062Z,1000.21
2018-03-17T03:45:42.467Z,1000.16
2018-03-17T03:46:51.903Z,1000.13
2018-03-17T03:48:00.528Z,1000.15
2018-03-17T03:49:10.219Z,1000.16
2018-03-17T03:50:19.934Z,1000.17
2018-03-17T03:51:28.869Z,1000.15
2018-03-17T03:52:37.778Z,1000.13
2018-03-17T03:53:46.683Z,1000.16
2018-03-17T03:54:56.117Z,1000.16
2018-03-17T03:56:05.534Z,1000.2
2018-03-17T03:57:14.960Z,1000.17
2018-03-17T03:58:23.905Z,1000.19
2018-03-17T03:59:32.808Z,1000.16
2018-03-17T04:00:41.701Z,1000.14
2018-03-17T04:01:50.609Z,1000.13
2018-03-17T04:02:59.502Z,1000.14
2018-03-17T04:04:08.188Z,1000.16
2018-03-17T04:05:17.603Z,1000.12
2018-03-17T04:06:26.531Z,1000.16
2018-03-17T04:07:35.688Z,1000.09
2018-03-17T04:08:44.853Z,1000.09
2018-03-17T04:09:54.274Z,1000.07
2018-03-17T04:11:03.433Z,1000.09
2018-03-17T04:12:12.893Z,1000.09
2018-03-17T04:13:22.576Z,1000.12
2018-03-17T04:14:31.520Z,1000.19
2018-03-17T04:15:40.153Z,1000.19
2018-03-17T04:16:49.064Z,1000.22
2018-03-17T04:17:57.972Z,1000.23
2018-03-17T04:19:06.623Z,1000.22
2018-03-17T04:20:15.798Z,1000.22
2018-03-17T04:21:24.955Z,1000.21
2018-03-17T04:22:33.873Z,1000.2
2018-03-17T04:23:42.777Z,1000.15
2018-03-17T04:24:52.204Z,1000.12
2018-03-17T04:26:01.110Z,1000.07
2018-03-17T04:27:10.543Z,1000.05
2018-03-17T04:28:19.181Z,1000.11
2018-03-17T04:29:28.650Z,1000.13
2018-03-17T04:30:37.318Z,1000.13
2018-03-17T04:31:46.019Z,1000.18
2018-03-17T04:32:55.189Z,1000.17
2018-03-17T04:34:03.866Z,1000.17
2018-03-17T04:35:13.055Z,1000.18
2018-03-17T04:36:21.727Z,1000.19
2018-03-17T04:37:31.152Z,1000.19
2018-03-17T04:38:40.300Z,1000.2
2018-03-17T04:39:49.467Z,1000.27
2018-03-17T04:40:58.651Z,1000.26
2018-03-17T04:42:07.820Z,1000.32
2018-03-17T04:43:17.571Z,1000.32
2018-03-17T04:44:26.494Z,1000.3
2018-03-17T04:45:35.402Z,1000.27
2018-03-17T04:46:44.314Z,1000.22
2018-03-17T04:47:53.481Z,1000.15
2018-03-17T04:49:02.382Z,1000.18
2018-03-17T04:50:11.289Z,1000.14
2018-03-17T04:51:20.510Z,1000.13
2018-03-17T04:52:29.363Z,1000.11
2018-03-17T04:53:38.514Z,1000.11
2018-03-17T04:54:47.406Z,1000.08
2018-03-17T04:55:56.580Z,1000.04
2018-03-17T04:57:05.998Z,1000.09
2018-03-17T04:58:14.638Z,1000.08
2018-03-17T04:59:23.543Z,1000.09
2018-03-17T05:00:32.721Z,1000.07
2018-03-17T05:01:41.893Z,1000.1
2018-03-17T05:02:51.043Z,1000.08
2018-03-17T05:04:00.467Z,1000.04
2018-03-17T05:05:09.453Z,1000.02
2018-03-17T05:06:18.447Z,999.97
2018-03-17T05:07:27.608Z,999.96
2018-03-17T05:08:36.755Z,1000
2018-03-17T05:09:45.654Z,1000.05
2018-03-17T05:10:54.830Z,999.97
2018-03-17T05:12:04.004Z,1000.01
2018-03-17T05:13:13.170Z,1000.03
2018-03-17T05:14:22.098Z,1000.03
2018-03-17T05:15:31.003Z,1000.03
2018-03-17T05:16:40.182Z,999.99
2018-03-17T05:17:49.604Z,999.96
2018-03-17T05:18:58.767Z,1000.02
2018-03-17T05:20:07.913Z,1000.02
2018-03-17T05:21:16.842Z,999.92
2018-03-17T05:22:25.470Z,999.91
2018-03-17T05:23:34.416Z,999.91
2018-03-17T05:24:43.331Z,999.88
2018-03-17T05:25:51.986Z,999.89
2018-03-17T05:27:00.885Z,999.87
2018-03-17T05:28:10.309Z,999.91
2018-03-17T05:29:19.210Z,999.87
2018-03-17T05:30:28.380Z,999.89
2018-03-17T05:31:37.539Z,999.88
2018-03-17T05:32:46.804Z,999.85
2018-03-17T05:33:55.962Z,999.88
2018-03-17T05:35:04.850Z,999.87
2018-03-17T05:36:13.485Z,999.87
2018-03-17T05:37:22.380Z,999.79
2018-03-17T05:38:31.827Z,999.81
2018-03-17T05:39:41.511Z,999.78
2018-03-17T05:40:50.407Z,999.78
2018-03-17T05:41:59.322Z,999.75
2018-03-17T05:43:08.492Z,999.76
2018-03-17T05:44:17.704Z,999.72
2018-03-17T05:45:26.871Z,999.75
2018-03-17T05:46:35.774Z,999.78
2018-03-17T05:47:44.677Z,999.76
2018-03-17T05:48:54.092Z,999.79
2018-03-17T05:50:02.722Z,999.79
2018-03-17T05:51:11.689Z,999.75
2018-03-17T05:52:20.381Z,999.81
2018-03-17T05:53:29.502Z,999.78
2018-03-17T05:54:38.680Z,999.84
2018-03-17T05:55:47.579Z,999.86
2018-03-17T05:56:56.499Z,999.87
2018-03-17T05:58:05.675Z,999.83
2018-03-17T05:59:14.838Z,999.8
2018-03-17T06:00:23.778Z,999.79
2018-03-17T06:01:32.689Z,999.81
2018-03-17T06:02:41.630Z,999.8
2018-03-17T06:03:50.815Z,999.84
2018-03-17T06:04:59.988Z,999.83
2018-03-17T06:06:08.883Z,999.88
2018-03-17T06:07:17.794Z,999.85
2018-03-17T06:08:26.958Z,999.9
2018-03-17T06:09:35.901Z,999.92
2018-03-17T06:10:45.087Z,999.92
2018-03-17T06:11:54.245Z,999.9
2018-03-17T06:13:03.138Z,999.92
2018-03-17T06:14:12.577Z,999.9
2018-03-17T06:15:21.473Z,999.89
2018-03-17T06:16:30.645Z,999.92
2018-03-17T06:17:39.838Z,999.91
2018-03-17T06:18:48.752Z,999.89
2018-03-17T06:19:57.395Z,999.92
2018-03-17T06:21:06.590Z,999.9
2018-03-17T06:22:15.480Z,999.92
2018-03-17T06:23:24.446Z,999.95
2018-03-17T06:24:34.386Z,999.96
2018-03-17T06:25:43.048Z,999.97
2018-03-17T06:26:52.255Z,999.99
2018-03-17T06:28:00.928Z,999.95
2018-03-17T06:29:10.096Z,999.93
2018-03-17T06:30:19.542Z,999.94
2018-03-17T06:31:28.475Z,999.93
2018-03-17T06:32:37.633Z,999.91
2018-03-17T06:33:46.560Z,999.93
2018-03-17T06:34:55.962Z,999.92
2018-03-17T06:36:05.636Z,999.93
2018-03-17T06:37:14.571Z,999.95
2018-03-17T06:38:23.460Z,999.88
2018-03-17T06:39:32.619Z,999.89
2018-03-17T06:40:42.056Z,999.91
2018-03-17T06:41:51.221Z,999.93
2018-03-17T06:43:00.373Z,999.92
2018-03-17T06:44:09.580Z,999.89
2018-03-17T06:45:18.741Z,999.9
2018-03-17T06:46:27.649Z,999.92
2018-03-17T06:47:36.553Z,999.9
2018-03-17T06:48:45.706Z,999.89
2018-03-17T06:49:54.381Z,999.88
2018-03-17T06:51:03.625Z,999.87
2018-03-17T06:52:12.542Z,999.88
2018-03-17T06:53:21.450Z,999.83
2018-03-17T06:54:30.883Z,999.89
2018-03-17T06:55:39.782Z,999.9
2018-03-17T06:56:48.666Z,999.91
2018-03-17T06:57:57.301Z,999.9
2018-03-17T06:59:06.483Z,999.93
2018-03-17T07:00:15.130Z,999.93
2018-03-17T07:01:24.280Z,999.93
2018-03-17T07:02:33.429Z,999.91
2018-03-17T07:03:42.609Z,999.93
2018-03-17T07:04:51.784Z,999.92
2018-03-17T07:06:00.939Z,999.93
2018-03-17T07:07:09.587Z,999.98
2018-03-17T07:08:18.477Z,999.91
2018-03-17T07:09:27.637Z,999.94
2018-03-17T07:10:37.052Z,999.96
2018-03-17T07:11:45.951Z,999.98
2018-03-17T07:12:55.101Z,1000.01
2018-03-17T07:14:04.277Z,1000.07
2018-03-17T07:15:13.439Z,1000.09
2018-03-17T07:16:22.602Z,1000.1
2018-03-17T07:17:31.777Z,1000.07
2018-03-17T07:18:40.445Z,1000.02
2018-03-17T07:19:49.415Z,1000.03
2018-03-17T07:20:58.887Z,1000.04
2018-03-17T07:22:08.050Z,1000.02
2018-03-17T07:23:17.471Z,1000.04
2018-03-17T07:24:26.673Z,1000.05
2018-03-17T07:25:35.599Z,1000.07
2018-03-17T07:26:44.511Z,1000.1
2018-03-17T07:27:53.685Z,1000.08
2018-03-17T07:29:02.612Z,1000.09
2018-03-17T07:30:11.259Z,1000.14
2018-03-17T07:31:20.173Z,1000.12
2018-03-17T07:32:29.093Z,1000.08
2018-03-17T07:33:38.247Z,1000.09
2018-03-17T07:34:47.422Z,1000.01
2018-03-17T07:35:56.879Z,1000.04
2018-03-17T07:37:05.800Z,1000.04
2018-03-17T07:38:14.952Z,1000.01
2018-03-17T07:39:24.362Z,1000.02
2018-03-17T07:40:33.531Z,999.98
2018-03-17T07:41:42.694Z,1000.03
2018-03-17T07:42:52.107Z,1000.05
2018-03-17T07:44:01.043Z,1000.11
2018-03-17T07:45:10.006Z,1000.08
2018-03-17T07:46:19.282Z,1000.09
2018-03-17T07:47:28.465Z,1000.11
2018-03-17T07:48:37.651Z,1000.1
2018-03-17T07:49:46.811Z,1000.12
2018-03-17T07:50:55.736Z,1000.19
2018-03-17T07:52:04.922Z,1000.18
2018-03-17T07:53:14.384Z,1000.15
2018-03-17T07:54:23.027Z,1000.11
2018-03-17T07:55:31.937Z,1000.1
2018-03-17T07:56:40.860Z,1000.13
2018-03-17T07:57:49.794Z,1000.06
2018-03-17T07:58:58.712Z,1000.08
2018-03-17T08:00:07.610Z,1000.1
2018-03-17T08:01:16.275Z,1000.11
2018-03-17T08:02:25.182Z,1000.16
2018-03-17T08:03:33.831Z,1000.17
2018-03-17T08:04:42.538Z,1000.17
2018-03-17T08:05:51.770Z,1000.17
2018-03-17T08:07:01.212Z,1000.17
2018-03-17T08:08:10.120Z,1000.12
2018-03-17T08:09:19.347Z,1000.07
2018-03-17T08:10:28.509Z,1000.15
2018-03-17T08:11:37.764Z,1000.11
2018-03-17T08:12:47.222Z,1000.11
2018-03-17T08:13:56.667Z,1000.09
2018-03-17T08:15:05.323Z,1000.1
2018-03-17T08:16:13.976Z,1000.09
2018-03-17T08:17:22.877Z,1000.14
2018-03-17T08:18:32.327Z,1000.15
2018-03-17T08:19:41.530Z,1000.12
2018-03-17T08:20:50.174Z,1000.12
2018-03-17T08:21:59.785Z,1000.14
2018-03-17T08:23:09.000Z,1000.12
2018-03-17T08:24:18.187Z,1000.15
2018-03-17T08:25:27.100Z,1000.14
2018-03-17T08:26:35.754Z,1000.12
2018-03-17T08:27:44.932Z,1000.14
2018-03-17T08:28:53.855Z,1000.15
2018-03-17T08:30:03.855Z,1000.13
2018-03-17T08:31:13.743Z,1000.13
2018-03-17T08:32:23.252Z,1000.16
2018-03-17T08:33:32.682Z,1000.16
2018-03-17T08:34:42.141Z,1000.16
2018-03-17T08:35:51.051Z,1000.09
2018-03-17T08:37:00.232Z,1000.15
2018-03-17T08:38:09.164Z,1000.09
2018-03-17T08:39:18.672Z,1000.12
2018-03-17T08:40:28.172Z,1000.09
2018-03-17T08:41:37.120Z,1000.07
2018-03-17T08:42:45.782Z,1000.11
2018-03-17T08:43:54.690Z,1000.06
2018-03-17T08:45:04.156Z,1000.11
2018-03-17T08:46:13.082Z,1000.1
2018-03-17T08:47:21.746Z,1000.13
2018-03-17T08:48:30.925Z,1000.14
2018-03-17T08:49:40.662Z,1000.16
2018-03-17T08:50:49.584Z,1000.12
2018-03-17T08:51:58.496Z,1000.12
2018-03-17T08:53:07.732Z,1000.05
2018-03-17T08:54:17.244Z,1000.07
2018-03-17T08:55:26.652Z,1000.1
2018-03-17T08:56:35.624Z,1000.06
2018-03-17T08:57:44.538Z,1000.05
2018-03-17T08:58:53.481Z,1000.04
2018-03-17T09:00:02.457Z,1000.09
2018-03-17T09:01:12.422Z,1000.07
2018-03-17T09:02:21.840Z,1000.05
2018-03-17T09:03:31.013Z,1000.03
2018-03-17T09:04:40.457Z,1000.05
2018-03-17T09:05:49.636Z,1000.02
2018-03-17T09:06:59.068Z,999.99
2018-03-17T09:08:07.974Z,1000.01
2018-03-17T09:09:16.898Z,999.98
2018-03-17T09:10:25.822Z,999.94
2018-03-17T09:11:35.247Z,999.96
2018-03-17T09:12:44.146Z,999.92
2018-03-17T09:13:52.820Z,999.92
2018-03-17T09:15:01.481Z,999.98
2018-03-17T09:16:10.432Z,1000
2018-03-17T09:17:19.615Z,999.99
2018-03-17T09:18:28.791Z,1000.05
2018-03-17T09:19:37.951Z,1000.08
2018-03-17T09:20:47.136Z,1000.02
2018-03-17T09:21:56.582Z,1000.03
2018-03-17T09:23:05.729Z,1000.05
2018-03-17T09:24:15.210Z,999.96
2018-03-17T09:25:24.133Z,999.96
2018-03-17T09:26:33.302Z,999.97
2018-03-17T09:27:42.246Z,999.9
2018-03-17T09:28:51.167Z,999.97
2018-03-17T09:30:00.083Z,1000
2018-03-17T09:31:09.263Z,999.95
2018-03-17T09:32:17.905Z,999.96
2018-03-17T09:33:26.836Z,999.93
2018-03-17T09:34:36.293Z,999.93
2018-03-17T09:35:45.560Z,999.97
2018-03-17T09:36:54.999Z,999.93
2018-03-17T09:38:04.201Z,999.97
2018-03-17T09:39:13.362Z,999.9
2018-03-17T09:40:22.558Z,999.96
2018-03-17T09:41:31.471Z,999.94
2018-03-17T09:42:40.659Z,999.98
2018-03-17T09:43:50.150Z,999.95
2018-03-17T09:44:59.069Z,999.93
2018-03-17T09:46:07.777Z,999.93
2018-03-17T09:47:16.699Z,999.96
2018-03-17T09:48:25.362Z,999.92
2018-03-17T09:49:34.812Z,999.95
2018-03-17T09:50:43.491Z,999.94
2018-03-17T09:51:52.660Z,999.93
2018-03-17T09:53:02.187Z,999.99
2018-03-17T09:54:11.924Z,999.99
2018-03-17T09:55:21.668Z,1000.02
2018-03-17T09:56:30.628Z,1000.03
2018-03-17T09:57:39.529Z,1000.04
2018-03-17T09:58:48.469Z,1000.06
2018-03-17T09:59:57.879Z,1000.11
2018-03-17T10:01:07.063Z,1000.05
2018-03-17T10:02:15.973Z,1000.07
2018-03-17T10:03:24.980Z,1000.1
2018-03-17T10:04:34.078Z,1000.04
2018-03-17T10:05:43.262Z,1000.06
2018-03-17T10:06:52.712Z,999.95
2018-03-17T10:08:02.145Z,1000.04
2018-03-17T10:09:11.075Z,1000.02
2018-03-17T10:10:20.260Z,999.98
2018-03-17T10:11:29.459Z,1000.06
2018-03-17T10:12:38.100Z,1000.07
2018-03-17T10:13:47.339Z,1000.09
2018-03-17T10:14:55.981Z,1000.04
2018-03-17T10:16:05.933Z,1000.03
2018-03-17T10:17:14.842Z,1000.09
2018-03-17T10:18:24.064Z,1000.03
2018-03-17T10:19:33.274Z,1000.01
2018-03-17T10:20:41.948Z,1000.03
2018-03-17T10:21:50.879Z,1000
2018-03-17T10:22:59.796Z,999.99
2018-03-17T10:24:09.272Z,1000.01
2018-03-17T10:25:18.181Z,1000.01
2018-03-17T10:26:27.863Z,1000.06
2018-03-17T10:27:37.146Z,1000.01
2018-03-17T10:28:46.323Z,1000.02
2018-03-17T10:29:54.990Z,999.99
2018-03-17T10:31:03.904Z,1000.04
2018-03-17T10:32:13.117Z,1000.03
2018-03-17T10:33:23.054Z,1000.05
2018-03-17T10:34:32.236Z,1000.06
2018-03-17T10:35:41.928Z,1000.06
2018-03-17T10:36:51.153Z,1000.11
2018-03-17T10:38:00.086Z,1000.06
2018-03-17T10:39:09.532Z,1000.05
2018-03-17T10:40:18.180Z,1000.03
2018-03-17T10:41:27.092Z,1000.02
2018-03-17T10:42:36.573Z,1000.01
2018-03-17T10:43:45.752Z,1000.02
2018-03-17T10:44:54.766Z,999.99
2018-03-17T10:46:03.953Z,1000.06
2018-03-17T10:47:12.856Z,1000.03
2018-03-17T10:48:22.103Z,1000.08
2018-03-17T10:49:31.579Z,1000.08
2018-03-17T10:50:40.549Z,1000.04
2018-03-17T10:51:49.824Z,1000.05
2018-03-17T10:52:59.052Z,1000.04
2018-03-17T10:54:08.268Z,999.99
2018-03-17T10:55:17.799Z,999.95
2018-03-17T10:56:27.107Z,999.96
2018-03-17T10:57:36.302Z,999.94
2018-03-17T10:58:45.259Z,1000.02
2018-03-17T10:59:54.188Z,1000
2018-03-17T11:01:03.393Z,1000.03
2018-03-17T11:02:12.589Z,1000.02
2018-03-17T11:03:21.772Z,999.98
2018-03-17T11:04:30.463Z,1000.02
2018-03-17T11:05:39.682Z,999.99
2018-03-17T11:06:48.370Z,999.97
2018-03-17T11:07:57.292Z,999.93
2018-03-17T11:09:06.509Z,999.91
2018-03-17T11:10:15.719Z,999.91
2018-03-17T11:11:24.644Z,999.93
2018-03-17T11:12:33.314Z,999.96
2018-03-17T11:13:43.030Z,999.95
2018-03-17T11:14:52.769Z,1000
2018-03-17T11:16:02.223Z,999.99
2018-03-17T11:17:11.677Z,1000.01
2018-03-17T11:18:21.129Z,1000.06
2018-03-17T11:19:29.876Z,1000.03
2018-03-17T11:20:39.095Z,999.97
2018-03-17T11:21:47.759Z,1000.03
2018-03-17T11:22:56.742Z,999.99
2018-03-17T11:24:06.188Z,999.98
2018-03-17T11:25:15.100Z,999.99
2018-03-17T11:26:24.802Z,999.97
2018-03-17T11:27:33.722Z,999.99
2018-03-17T11:28:42.912Z,1000
2018-03-17T11:29:51.846Z,999.98
2018-03-17T11:31:00.774Z,999.92
2018-03-17T11:32:10.243Z,999.96
2018-03-17T11:33:19.257Z,999.98
2018-03-17T11:34:28.461Z,999.92
2018-03-17T11:35:37.180Z,999.95
2018-03-17T11:36:46.117Z,999.88
2018-03-17T11:37:55.350Z,999.89
2018-03-17T11:39:04.578Z,999.87
2018-03-17T11:40:13.772Z,999.89
2018-03-17T11:41:22.979Z,999.91
2018-03-17T11:42:32.524Z,999.94
2018-03-17T11:43:41.748Z,999.91
2018-03-17T11:44:50.418Z,999.92
2018-03-17T11:45:59.098Z,999.87
2018-03-17T11:47:08.080Z,999.92
2018-03-17T11:48:17.148Z,999.88
2018-03-17T11:49:26.416Z,999.91
2018-03-17T11:50:35.680Z,999.87
2018-03-17T11:51:44.756Z,999.96
2018-03-17T11:52:53.696Z,999.99
2018-03-17T11:54:02.646Z,999.99
2018-03-17T11:55:11.362Z,999.96
2018-03-17T11:56:20.607Z,999.96
2018-03-17T11:57:29.536Z,1000
2018-03-17T11:58:38.811Z,999.99
2018-03-17T11:59:48.561Z,999.99
2018-03-17T12:00:57.458Z,1000.05
2018-03-17T12:02:06.638Z,1000.03
2018-03-17T12:03:16.095Z,1000.07
2018-03-17T12:04:25.057Z,1000.15
2018-03-17T12:05:34.572Z,1000.02
2018-03-17T12:06:43.236Z,1000.04
2018-03-17T12:07:51.907Z,1000.07
2018-03-17T12:09:01.080Z,1000.03
2018-03-17T12:10:10.595Z,1000.01
2018-03-17T12:11:19.610Z,1000.05
2018-03-17T12:12:28.307Z,1000.06
2018-03-17T12:13:37.228Z,1000.01
2018-03-17T12:14:46.977Z,1000.02
2018-03-17T12:15:55.923Z,999.91
2018-03-17T12:17:05.096Z,999.96
2018-03-17T12:18:14.006Z,999.94
2018-03-17T12:19:22.927Z,999.88
2018-03-17T12:20:32.402Z,999.91
2018-03-17T12:21:41.569Z,999.89
2018-03-17T12:22:50.744Z,999.85
2018-03-17T12:24:00.289Z,999.86
2018-03-17T12:25:09.264Z,999.76
2018-03-17T12:26:18.462Z,999.77
2018-03-17T12:27:27.680Z,999.8
2018-03-17T12:28:36.870Z,999.77
2018-03-17T12:29:46.047Z,999.81
2018-03-17T12:30:55.313Z,999.83
2018-03-17T12:32:04.734Z,999.74
2018-03-17T12:33:13.651Z,999.77
2018-03-17T12:34:22.659Z,999.77
2018-03-17T12:35:31.541Z,999.77
2018-03-17T12:36:40.702Z,999.8
2018-03-17T12:37:49.622Z,999.77
2018-03-17T12:38:58.808Z,999.77
2018-03-17T12:40:07.993Z,999.77
2018-03-17T12:41:16.653Z,999.74
2018-03-17T12:42:25.565Z,999.8
2018-03-17T12:43:35.251Z,999.8
2018-03-17T12:44:44.428Z,999.72
2018-03-17T12:45:53.380Z,999.81
2018-03-17T12:47:02.564Z,999.77
2018-03-17T12:48:12.342Z,999.77
2018-03-17T12:49:21.804Z,999.71
2018-03-17T12:50:31.000Z,999.72
2018-03-17T12:51:40.168Z,999.7
2018-03-17T12:52:49.106Z,999.69
2018-03-17T12:53:58.525Z,999.69
2018-03-17T12:55:07.998Z,999.68
2018-03-17T12:56:17.467Z,999.68
2018-03-17T12:57:26.115Z,999.68
2018-03-17T12:58:35.033Z,999.71
2018-03-17T12:59:44.439Z,999.71
2018-03-17T13:00:53.120Z,999.71
2018-03-17T13:02:02.308Z,999.67
2018-03-17T13:03:11.491Z,999.71
2018-03-17T13:04:20.402Z,999.64
2018-03-17T13:05:29.589Z,999.69
2018-03-17T13:06:38.768Z,999.67
2018-03-17T13:07:47.685Z,999.73
2018-03-17T13:08:56.893Z,999.71
2018-03-17T13:10:06.048Z,999.77
2018-03-17T13:11:15.474Z,999.79
2018-03-17T13:12:24.424Z,999.77
2018-03-17T13:13:33.332Z,999.76
2018-03-17T13:14:42.001Z,999.76
2018-03-17T13:15:51.196Z,999.76
2018-03-17T13:16:59.861Z,999.79
2018-03-17T13:18:09.064Z,999.73
2018-03-17T13:19:18.002Z,999.78
2018-03-17T13:20:27.837Z,999.75
2018-03-17T13:21:37.033Z,999.71
2018-03-17T13:22:46.449Z,999.8
2018-03-17T13:23:55.650Z,999.8
2018-03-17T13:25:04.876Z,999.76
2018-03-17T13:26:14.307Z,999.83
2018-03-17T13:27:23.768Z,999.77
2018-03-17T13:28:33.214Z,999.74
2018-03-17T13:29:42.385Z,999.72
2018-03-17T13:30:51.545Z,999.72
2018-03-17T13:32:01.014Z,999.75
2018-03-17T13:33:10.338Z,999.78
2018-03-17T13:34:19.012Z,999.78
2018-03-17T13:35:28.228Z,999.78
2018-03-17T13:36:37.158Z,999.82
2018-03-17T13:37:46.060Z,999.75
2018-03-17T13:38:55.331Z,999.74
2018-03-17T13:40:04.509Z,999.77
2018-03-17T13:41:13.490Z,999.81
2018-03-17T13:42:23.198Z,999.79
2018-03-17T13:43:32.125Z,999.75
2018-03-17T13:44:40.833Z,999.8
2018-03-17T13:45:50.023Z,999.8
2018-03-17T13:46:59.195Z,999.81
2018-03-17T13:48:08.625Z,999.79
2018-03-17T13:49:17.554Z,999.79
2018-03-17T13:50:26.515Z,999.82
2018-03-17T13:51:35.965Z,999.85
2018-03-17T13:52:45.406Z,999.79
2018-03-17T13:53:54.358Z,999.81
2018-03-17T13:55:03.291Z,999.76
2018-03-17T13:56:12.197Z,999.74
2018-03-17T13:57:21.380Z,999.69
2018-03-17T13:58:30.812Z,999.76
2018-03-17T13:59:40.651Z,999.76
2018-03-17T14:00:49.302Z,999.79
2018-03-17T14:01:58.224Z,999.77
2018-03-17T14:03:07.166Z,999.77
2018-03-17T14:04:16.057Z,999.74
2018-03-17T14:05:24.705Z,999.76
2018-03-17T14:06:33.628Z,999.71
2018-03-17T14:07:42.540Z,999.7
2018-03-17T14:08:51.490Z,999.8